sensor_id;sensor_type;location;lat;lon;timestamp;P1;durP1;ratioP1;P2;durP2;ratioP2
40170;SDS011;37650;52.790;18.268;2023-03-24T00:00:19;20.40;;;14.30;;
40170;SDS011;37650;52.790;18.268;2023-03-24T00:03:56;19.40;;;13.30;;
40170;SDS011;37650;52.790;18.268;2023-03-24T00:07:18;23.10;;;16.10;;
40170;SDS011;37650;52.790;18.268;2023-03-24T00:10:43;20.30;;;15.50;;
40170;SDS011;37650;52.790;18.268;2023-03-24T00:14:07;62.20;;;45.30;;
40170;SDS011;37650;52.790;18.268;2023-03-24T00:17:32;27.00;;;17.40;;
40170;SDS011;37650;52.790;18.268;2023-03-24T00:20:56;22.90;;;13.80;;
40170;SDS011;37650;52.790;18.268;2023-03-24T00:27:40;375.90;;;108.70;;
40170;SDS011;37650;52.790;18.268;2023-03-24T00:31:02;418.70;;;128.90;;
40170;SDS011;37650;52.790;18.268;2023-03-24T00:34:28;371.60;;;114.70;;
40170;SDS011;37650;52.790;18.268;2023-03-24T00:37:49;252.70;;;83.80;;
40170;SDS011;37650;52.790;18.268;2023-03-24T00:41:12;205.20;;;62.50;;
40170;SDS011;37650;52.790;18.268;2023-03-24T00:44:37;254.80;;;76.00;;
40170;SDS011;37650;52.790;18.268;2023-03-24T00:47:59;205.70;;;63.40;;
40170;SDS011;37650;52.790;18.268;2023-03-24T00:51:20;148.60;;;51.60;;
40170;SDS011;37650;52.790;18.268;2023-03-24T00:54:41;87.40;;;31.70;;
40170;SDS011;37650;52.790;18.268;2023-03-24T00:58:06;45.40;;;21.20;;
40170;SDS011;37650;52.790;18.268;2023-03-24T01:01:28;40.20;;;21.70;;
40170;SDS011;37650;52.790;18.268;2023-03-24T01:04:53;40.40;;;22.00;;
40170;SDS011;37650;52.790;18.268;2023-03-24T01:08:17;36.90;;;20.90;;
40170;SDS011;37650;52.790;18.268;2023-03-24T01:11:42;37.00;;;20.10;;
40170;SDS011;37650;52.790;18.268;2023-03-24T01:15:07;35.70;;;19.60;;
40170;SDS011;37650;52.790;18.268;2023-03-24T01:18:34;37.80;;;20.40;;
40170;SDS011;37650;52.790;18.268;2023-03-24T01:22:02;31.60;;;20.60;;
40170;SDS011;37650;52.790;18.268;2023-03-24T01:25:24;22.70;;;17.00;;
40170;SDS011;37650;52.790;18.268;2023-03-24T01:28:47;27.10;;;18.20;;
40170;SDS011;37650;52.790;18.268;2023-03-24T01:32:09;23.10;;;15.60;;
40170;SDS011;37650;52.790;18.268;2023-03-24T01:35:31;21.80;;;14.60;;
40170;SDS011;37650;52.790;18.268;2023-03-24T01:38:53;22.10;;;13.70;;
40170;SDS011;37650;52.790;18.268;2023-03-24T01:42:19;36.70;;;23.00;;
40170;SDS011;37650;52.790;18.268;2023-03-24T01:45:54;59.60;;;35.10;;
40170;SDS011;37650;52.790;18.268;2023-03-24T01:49:17;27.70;;;16.90;;
40170;SDS011;37650;52.790;18.268;2023-03-24T01:52:40;24.30;;;16.80;;
40170;SDS011;37650;52.790;18.268;2023-03-24T01:56:02;27.70;;;18.60;;
40170;SDS011;37650;52.790;18.268;2023-03-24T01:59:31;22.00;;;15.50;;
40170;SDS011;37650;52.790;18.268;2023-03-24T02:03:09;27.50;;;15.10;;
40170;SDS011;37650;52.790;18.268;2023-03-24T02:06:41;22.10;;;13.90;;
40170;SDS011;37650;52.790;18.268;2023-03-24T02:10:07;18.20;;;12.70;;
40170;SDS011;37650;52.790;18.268;2023-03-24T02:13:34;17.00;;;11.00;;
40170;SDS011;37650;52.790;18.268;2023-03-24T02:17:05;17.30;;;10.50;;
40170;SDS011;37650;52.790;18.268;2023-03-24T02:32:01;17.90;;;11.60;;
40170;SDS011;37650;52.790;18.268;2023-03-24T02:46:53;21.10;;;13.90;;
40170;SDS011;37650;52.790;18.268;2023-03-24T02:50:27;21.90;;;14.00;;
40170;SDS011;37650;52.790;18.268;2023-03-24T02:57:33;17.60;;;13.10;;
40170;SDS011;37650;52.790;18.268;2023-03-24T03:02:06;13.90;;;9.90;;
40170;SDS011;37650;52.790;18.268;2023-03-24T03:05:38;15.90;;;11.00;;
40170;SDS011;37650;52.790;18.268;2023-03-24T03:09:07;15.60;;;9.70;;
40170;SDS011;37650;52.790;18.268;2023-03-24T03:12:33;17.20;;;11.40;;
40170;SDS011;37650;52.790;18.268;2023-03-24T03:15:59;14.80;;;9.90;;
40170;SDS011;37650;52.790;18.268;2023-03-24T03:19:33;12.80;;;9.80;;
40170;SDS011;37650;52.790;18.268;2023-03-24T03:23:01;13.50;;;9.00;;
40170;SDS011;37650;52.790;18.268;2023-03-24T03:26:27;13.60;;;9.30;;
40170;SDS011;37650;52.790;18.268;2023-03-24T03:29:53;15.70;;;10.20;;
40170;SDS011;37650;52.790;18.268;2023-03-24T03:33:21;22.90;;;12.60;;
40170;SDS011;37650;52.790;18.268;2023-03-24T03:37:06;15.30;;;10.00;;
40170;SDS011;37650;52.790;18.268;2023-03-24T03:40:35;17.30;;;9.40;;
40170;SDS011;37650;52.790;18.268;2023-03-24T03:44:07;14.60;;;10.80;;
40170;SDS011;37650;52.790;18.268;2023-03-24T03:47:29;16.50;;;11.70;;
40170;SDS011;37650;52.790;18.268;2023-03-24T03:50:51;18.60;;;12.70;;
40170;SDS011;37650;52.790;18.268;2023-03-24T03:54:14;15.60;;;11.20;;
40170;SDS011;37650;52.790;18.268;2023-03-24T03:57:39;13.90;;;10.40;;
40170;SDS011;37650;52.790;18.268;2023-03-24T04:01:28;16.50;;;10.00;;
40170;SDS011;37650;52.790;18.268;2023-03-24T04:09:25;14.30;;;10.60;;
40170;SDS011;37650;52.790;18.268;2023-03-24T04:13:05;14.30;;;10.30;;
40170;SDS011;37650;52.790;18.268;2023-03-24T04:20:57;16.50;;;11.20;;
40170;SDS011;37650;52.790;18.268;2023-03-24T04:28:22;14.50;;;9.80;;
40170;SDS011;37650;52.790;18.268;2023-03-24T04:32:12;15.90;;;10.30;;
40170;SDS011;37650;52.790;18.268;2023-03-24T04:35:48;15.60;;;9.50;;
40170;SDS011;37650;52.790;18.268;2023-03-24T04:39:37;14.50;;;9.70;;
40170;SDS011;37650;52.790;18.268;2023-03-24T04:43:08;15.10;;;9.70;;
40170;SDS011;37650;52.790;18.268;2023-03-24T04:46:33;14.00;;;8.90;;
40170;SDS011;37650;52.790;18.268;2023-03-24T04:50:03;15.40;;;9.60;;
40170;SDS011;37650;52.790;18.268;2023-03-24T04:53:29;17.10;;;10.10;;
40170;SDS011;37650;52.790;18.268;2023-03-24T04:56:51;14.70;;;8.90;;
40170;SDS011;37650;52.790;18.268;2023-03-24T05:00:21;15.50;;;9.70;;
40170;SDS011;37650;52.790;18.268;2023-03-24T05:03:42;13.90;;;9.10;;
40170;SDS011;37650;52.790;18.268;2023-03-24T05:07:06;14.90;;;9.10;;
40170;SDS011;37650;52.790;18.268;2023-03-24T05:10:28;12.20;;;8.80;;
40170;SDS011;37650;52.790;18.268;2023-03-24T05:13:50;15.40;;;9.90;;
40170;SDS011;37650;52.790;18.268;2023-03-24T05:17:11;32.00;;;14.30;;
40170;SDS011;37650;52.790;18.268;2023-03-24T05:20:33;19.70;;;11.10;;
40170;SDS011;37650;52.790;18.268;2023-03-24T05:24:02;20.60;;;11.60;;
40170;SDS011;37650;52.790;18.268;2023-03-24T05:27:24;22.00;;;11.10;;
40170;SDS011;37650;52.790;18.268;2023-03-24T05:30:45;14.50;;;10.30;;
40170;SDS011;37650;52.790;18.268;2023-03-24T05:34:36;13.20;;;8.00;;
40170;SDS011;37650;52.790;18.268;2023-03-24T05:38:06;12.20;;;8.40;;
40170;SDS011;37650;52.790;18.268;2023-03-24T05:41:28;13.20;;;7.70;;
40170;SDS011;37650;52.790;18.268;2023-03-24T05:44:51;11.10;;;8.30;;
40170;SDS011;37650;52.790;18.268;2023-03-24T05:48:19;11.40;;;8.60;;
40170;SDS011;37650;52.790;18.268;2023-03-24T05:52:01;11.40;;;9.00;;
40170;SDS011;37650;52.790;18.268;2023-03-24T05:55:23;13.50;;;9.20;;
40170;SDS011;37650;52.790;18.268;2023-03-24T05:58:49;12.40;;;8.20;;
40170;SDS011;37650;52.790;18.268;2023-03-24T06:02:11;9.40;;;7.20;;
40170;SDS011;37650;52.790;18.268;2023-03-24T06:05:44;12.70;;;8.20;;
40170;SDS011;37650;52.790;18.268;2023-03-24T06:09:08;19.20;;;9.70;;
40170;SDS011;37650;52.790;18.268;2023-03-24T06:12:29;16.80;;;9.30;;
40170;SDS011;37650;52.790;18.268;2023-03-24T06:15:57;14.00;;;8.60;;
40170;SDS011;37650;52.790;18.268;2023-03-24T06:19:28;14.20;;;8.10;;
40170;SDS011;37650;52.790;18.268;2023-03-24T06:23:05;19.40;;;8.90;;
40170;SDS011;37650;52.790;18.268;2023-03-24T06:27:02;12.50;;;8.20;;
40170;SDS011;37650;52.790;18.268;2023-03-24T06:30:28;12.80;;;9.00;;
40170;SDS011;37650;52.790;18.268;2023-03-24T06:33:50;22.60;;;16.40;;
40170;SDS011;37650;52.790;18.268;2023-03-24T06:40:35;11.40;;;7.60;;
40170;SDS011;37650;52.790;18.268;2023-03-24T06:44:15;15.00;;;9.70;;
40170;SDS011;37650;52.790;18.268;2023-03-24T06:47:36;10.80;;;8.70;;
40170;SDS011;37650;52.790;18.268;2023-03-24T06:50:57;12.30;;;8.70;;
40170;SDS011;37650;52.790;18.268;2023-03-24T06:54:19;11.40;;;8.30;;
40170;SDS011;37650;52.790;18.268;2023-03-24T06:57:41;30.00;;;14.30;;
40170;SDS011;37650;52.790;18.268;2023-03-24T07:01:22;16.60;;;8.60;;
40170;SDS011;37650;52.790;18.268;2023-03-24T07:04:49;18.80;;;8.70;;
40170;SDS011;37650;52.790;18.268;2023-03-24T07:08:20;16.00;;;9.70;;
40170;SDS011;37650;52.790;18.268;2023-03-24T07:11:47;16.30;;;10.80;;
40170;SDS011;37650;52.790;18.268;2023-03-24T07:15:09;31.70;;;17.00;;
40170;SDS011;37650;52.790;18.268;2023-03-24T07:18:31;56.20;;;24.90;;
40170;SDS011;37650;52.790;18.268;2023-03-24T07:21:59;48.40;;;27.60;;
40170;SDS011;37650;52.790;18.268;2023-03-24T07:25:30;23.60;;;12.50;;
40170;SDS011;37650;52.790;18.268;2023-03-24T07:28:57;24.30;;;12.80;;
40170;SDS011;37650;52.790;18.268;2023-03-24T07:32:47;29.50;;;17.20;;
40170;SDS011;37650;52.790;18.268;2023-03-24T07:36:09;14.60;;;9.50;;
40170;SDS011;37650;52.790;18.268;2023-03-24T07:39:32;25.00;;;12.90;;
40170;SDS011;37650;52.790;18.268;2023-03-24T07:42:53;22.90;;;11.60;;
40170;SDS011;37650;52.790;18.268;2023-03-24T07:46:31;33.10;;;16.40;;
40170;SDS011;37650;52.790;18.268;2023-03-24T07:49:52;20.60;;;11.30;;
40170;SDS011;37650;52.790;18.268;2023-03-24T07:53:13;12.80;;;9.20;;
40170;SDS011;37650;52.790;18.268;2023-03-24T07:56:38;18.90;;;9.80;;
40170;SDS011;37650;52.790;18.268;2023-03-24T07:59:59;16.00;;;10.60;;
40170;SDS011;37650;52.790;18.268;2023-03-24T08:03:36;27.20;;;14.30;;
40170;SDS011;37650;52.790;18.268;2023-03-24T08:07:17;26.20;;;14.60;;
40170;SDS011;37650;52.790;18.268;2023-03-24T08:10:38;21.90;;;14.60;;
40170;SDS011;37650;52.790;18.268;2023-03-24T08:14:00;16.70;;;12.00;;
40170;SDS011;37650;52.790;18.268;2023-03-24T08:17:21;20.10;;;13.40;;
40170;SDS011;37650;52.790;18.268;2023-03-24T08:20:42;13.50;;;8.60;;
40170;SDS011;37650;52.790;18.268;2023-03-24T08:24:04;12.80;;;8.80;;
40170;SDS011;37650;52.790;18.268;2023-03-24T08:27:26;11.80;;;8.50;;
40170;SDS011;37650;52.790;18.268;2023-03-24T08:30:48;14.70;;;11.20;;
40170;SDS011;37650;52.790;18.268;2023-03-24T08:34:09;15.10;;;9.50;;
40170;SDS011;37650;52.790;18.268;2023-03-24T08:37:31;14.30;;;9.00;;
40170;SDS011;37650;52.790;18.268;2023-03-24T08:40:52;18.90;;;10.90;;
40170;SDS011;37650;52.790;18.268;2023-03-24T08:44:14;13.10;;;8.90;;
40170;SDS011;37650;52.790;18.268;2023-03-24T08:47:36;12.30;;;8.50;;
40170;SDS011;37650;52.790;18.268;2023-03-24T08:50:58;9.90;;;7.00;;
40170;SDS011;37650;52.790;18.268;2023-03-24T08:54:20;12.00;;;10.40;;
40170;SDS011;37650;52.790;18.268;2023-03-24T08:57:44;16.40;;;13.30;;
40170;SDS011;37650;52.790;18.268;2023-03-24T09:01:05;13.20;;;9.90;;
40170;SDS011;37650;52.790;18.268;2023-03-24T09:04:28;11.70;;;10.50;;
40170;SDS011;37650;52.790;18.268;2023-03-24T09:07:50;11.20;;;10.10;;
40170;SDS011;37650;52.790;18.268;2023-03-24T09:11:13;17.70;;;15.90;;
40170;SDS011;37650;52.790;18.268;2023-03-24T09:14:38;15.80;;;14.40;;
40170;SDS011;37650;52.790;18.268;2023-03-24T09:18:00;11.10;;;8.40;;
40170;SDS011;37650;52.790;18.268;2023-03-24T09:21:22;14.20;;;11.80;;
40170;SDS011;37650;52.790;18.268;2023-03-24T09:24:44;9.50;;;8.50;;
40170;SDS011;37650;52.790;18.268;2023-03-24T09:28:08;8.60;;;7.20;;
40170;SDS011;37650;52.790;18.268;2023-03-24T09:31:30;16.00;;;14.40;;
40170;SDS011;37650;52.790;18.268;2023-03-24T09:34:57;16.00;;;14.60;;
40170;SDS011;37650;52.790;18.268;2023-03-24T09:38:19;17.00;;;15.50;;
40170;SDS011;37650;52.790;18.268;2023-03-24T09:45:08;8.50;;;7.10;;
40170;SDS011;37650;52.790;18.268;2023-03-24T09:48:50;12.00;;;10.80;;
40170;SDS011;37650;52.790;18.268;2023-03-24T09:52:18;9.20;;;8.00;;
40170;SDS011;37650;52.790;18.268;2023-03-24T09:55:44;12.00;;;10.90;;
40170;SDS011;37650;52.790;18.268;2023-03-24T09:59:07;13.40;;;12.20;;
40170;SDS011;37650;52.790;18.268;2023-03-24T10:02:50;12.10;;;10.60;;
40170;SDS011;37650;52.790;18.268;2023-03-24T10:09:58;11.60;;;6.60;;
40170;SDS011;37650;52.790;18.268;2023-03-24T10:13:23;6.60;;;5.60;;
40170;SDS011;37650;52.790;18.268;2023-03-24T10:20:19;6.50;;;5.90;;
40170;SDS011;37650;52.790;18.268;2023-03-24T10:24:06;7.90;;;6.30;;
40170;SDS011;37650;52.790;18.268;2023-03-24T10:27:41;5.80;;;4.00;;
40170;SDS011;37650;52.790;18.268;2023-03-24T10:31:12;11.50;;;6.10;;
40170;SDS011;37650;52.790;18.268;2023-03-24T10:34:36;6.50;;;5.70;;
40170;SDS011;37650;52.790;18.268;2023-03-24T10:38:00;4.80;;;3.40;;
40170;SDS011;37650;52.790;18.268;2023-03-24T10:41:26;8.70;;;4.60;;
40170;SDS011;37650;52.790;18.268;2023-03-24T10:44:49;6.50;;;2.90;;
40170;SDS011;37650;52.790;18.268;2023-03-24T10:48:12;6.00;;;3.30;;
40170;SDS011;37650;52.790;18.268;2023-03-24T10:51:34;6.80;;;4.10;;
40170;SDS011;37650;52.790;18.268;2023-03-24T10:54:57;5.90;;;3.60;;
40170;SDS011;37650;52.790;18.268;2023-03-24T10:58:28;4.90;;;4.30;;
40170;SDS011;37650;52.790;18.268;2023-03-24T11:01:59;9.50;;;6.80;;
40170;SDS011;37650;52.790;18.268;2023-03-24T11:05:32;7.80;;;4.70;;
40170;SDS011;37650;52.790;18.268;2023-03-24T11:09:09;7.00;;;3.60;;
40170;SDS011;37650;52.790;18.268;2023-03-24T11:12:40;9.40;;;4.10;;
40170;SDS011;37650;52.790;18.268;2023-03-24T11:16:09;7.40;;;2.80;;
40170;SDS011;37650;52.790;18.268;2023-03-24T11:19:31;7.50;;;3.70;;
40170;SDS011;37650;52.790;18.268;2023-03-24T11:26:32;6.90;;;3.80;;
40170;SDS011;37650;52.790;18.268;2023-03-24T11:29:55;7.20;;;2.90;;
40170;SDS011;37650;52.790;18.268;2023-03-24T11:33:17;5.90;;;4.00;;
40170;SDS011;37650;52.790;18.268;2023-03-24T11:37:26;6.60;;;3.70;;
40170;SDS011;37650;52.790;18.268;2023-03-24T11:40:52;8.80;;;4.80;;
40170;SDS011;37650;52.790;18.268;2023-03-24T11:44:21;7.20;;;5.10;;
40170;SDS011;37650;52.790;18.268;2023-03-24T11:47:44;7.30;;;3.70;;
40170;SDS011;37650;52.790;18.268;2023-03-24T11:54:30;8.00;;;4.70;;
40170;SDS011;37650;52.790;18.268;2023-03-24T11:57:56;7.80;;;5.00;;
40170;SDS011;37650;52.790;18.268;2023-03-24T12:08:25;7.30;;;4.60;;
40170;SDS011;37650;52.790;18.268;2023-03-24T12:15:59;6.70;;;3.60;;
40170;SDS011;37650;52.790;18.268;2023-03-24T12:19:34;8.80;;;4.30;;
40170;SDS011;37650;52.790;18.268;2023-03-24T12:23:27;5.10;;;3.60;;
40170;SDS011;37650;52.790;18.268;2023-03-24T12:26:59;5.30;;;3.60;;
40170;SDS011;37650;52.790;18.268;2023-03-24T12:37:15;7.40;;;4.00;;
40170;SDS011;37650;52.790;18.268;2023-03-24T12:41:04;5.00;;;3.50;;
40170;SDS011;37650;52.790;18.268;2023-03-24T12:45:00;4.80;;;3.20;;
40170;SDS011;37650;52.790;18.268;2023-03-24T12:55:39;5.50;;;3.60;;
40170;SDS011;37650;52.790;18.268;2023-03-24T12:59:23;6.30;;;3.50;;
40170;SDS011;37650;52.790;18.268;2023-03-24T13:03:00;5.50;;;3.80;;
40170;SDS011;37650;52.790;18.268;2023-03-24T13:06:28;5.60;;;3.50;;
40170;SDS011;37650;52.790;18.268;2023-03-24T13:13:37;6.80;;;3.90;;
40170;SDS011;37650;52.790;18.268;2023-03-24T13:17:04;5.60;;;3.30;;
40170;SDS011;37650;52.790;18.268;2023-03-24T13:20:34;6.00;;;3.00;;
40170;SDS011;37650;52.790;18.268;2023-03-24T13:24:07;5.10;;;3.30;;
40170;SDS011;37650;52.790;18.268;2023-03-24T13:27:32;5.00;;;3.30;;
40170;SDS011;37650;52.790;18.268;2023-03-24T13:30:58;5.00;;;3.10;;
40170;SDS011;37650;52.790;18.268;2023-03-24T13:34:24;6.40;;;3.70;;
40170;SDS011;37650;52.790;18.268;2023-03-24T13:37:48;5.30;;;3.80;;
40170;SDS011;37650;52.790;18.268;2023-03-24T13:41:22;5.60;;;3.90;;
40170;SDS011;37650;52.790;18.268;2023-03-24T13:44:46;6.10;;;4.10;;
40170;SDS011;37650;52.790;18.268;2023-03-24T13:51:34;6.80;;;4.40;;
40170;SDS011;37650;52.790;18.268;2023-03-24T13:55:00;6.00;;;4.40;;
40170;SDS011;37650;52.790;18.268;2023-03-24T13:58:42;7.50;;;4.30;;
40170;SDS011;37650;52.790;18.268;2023-03-24T14:09:25;7.00;;;5.10;;
40170;SDS011;37650;52.790;18.268;2023-03-24T14:23:21;7.40;;;5.00;;
40170;SDS011;37650;52.790;18.268;2023-03-24T14:26:49;7.50;;;4.50;;
40170;SDS011;37650;52.790;18.268;2023-03-24T14:33:36;6.40;;;3.60;;
40170;SDS011;37650;52.790;18.268;2023-03-24T14:37:01;14.60;;;6.70;;
40170;SDS011;37650;52.790;18.268;2023-03-24T14:40:35;6.60;;;3.70;;
40170;SDS011;37650;52.790;18.268;2023-03-24T14:44:00;5.40;;;4.00;;
40170;SDS011;37650;52.790;18.268;2023-03-24T14:47:22;5.20;;;3.40;;
40170;SDS011;37650;52.790;18.268;2023-03-24T14:50:45;5.70;;;3.70;;
40170;SDS011;37650;52.790;18.268;2023-03-24T14:54:18;6.50;;;3.90;;
40170;SDS011;37650;52.790;18.268;2023-03-24T14:57:52;6.60;;;4.00;;
40170;SDS011;37650;52.790;18.268;2023-03-24T15:01:24;6.10;;;4.10;;
40170;SDS011;37650;52.790;18.268;2023-03-24T15:08:42;5.50;;;2.90;;
40170;SDS011;37650;52.790;18.268;2023-03-24T15:12:05;5.00;;;3.40;;
40170;SDS011;37650;52.790;18.268;2023-03-24T15:15:28;5.50;;;2.60;;
40170;SDS011;37650;52.790;18.268;2023-03-24T15:22:13;5.40;;;3.20;;
40170;SDS011;37650;52.790;18.268;2023-03-24T15:25:35;9.60;;;6.30;;
40170;SDS011;37650;52.790;18.268;2023-03-24T15:29:03;7.00;;;4.10;;
40170;SDS011;37650;52.790;18.268;2023-03-24T15:32:27;5.60;;;3.70;;
40170;SDS011;37650;52.790;18.268;2023-03-24T15:35:56;6.90;;;3.70;;
40170;SDS011;37650;52.790;18.268;2023-03-24T15:39:19;6.70;;;3.90;;
40170;SDS011;37650;52.790;18.268;2023-03-24T15:42:47;5.40;;;3.80;;
40170;SDS011;37650;52.790;18.268;2023-03-24T15:46:23;5.90;;;3.80;;
40170;SDS011;37650;52.790;18.268;2023-03-24T15:49:53;7.50;;;3.60;;
40170;SDS011;37650;52.790;18.268;2023-03-24T15:53:24;5.70;;;3.90;;
40170;SDS011;37650;52.790;18.268;2023-03-24T16:00:41;6.60;;;3.10;;
40170;SDS011;37650;52.790;18.268;2023-03-24T16:04:23;6.00;;;3.00;;
40170;SDS011;37650;52.790;18.268;2023-03-24T16:07:52;8.80;;;4.60;;
40170;SDS011;37650;52.790;18.268;2023-03-24T16:11:18;6.10;;;1.70;;
40170;SDS011;37650;52.790;18.268;2023-03-24T16:14:39;3.40;;;1.50;;
40170;SDS011;37650;52.790;18.268;2023-03-24T16:18:01;4.40;;;2.10;;
40170;SDS011;37650;52.790;18.268;2023-03-24T16:21:25;3.70;;;1.60;;
40170;SDS011;37650;52.790;18.268;2023-03-24T16:24:48;2.10;;;1.10;;
40170;SDS011;37650;52.790;18.268;2023-03-24T16:28:11;3.60;;;1.30;;
40170;SDS011;37650;52.790;18.268;2023-03-24T16:31:33;3.40;;;1.80;;
40170;SDS011;37650;52.790;18.268;2023-03-24T16:34:55;3.10;;;1.70;;
40170;SDS011;37650;52.790;18.268;2023-03-24T16:38:19;4.10;;;2.50;;
40170;SDS011;37650;52.790;18.268;2023-03-24T16:41:41;3.90;;;2.00;;
40170;SDS011;37650;52.790;18.268;2023-03-24T16:45:04;5.50;;;2.30;;
40170;SDS011;37650;52.790;18.268;2023-03-24T16:48:26;5.90;;;1.90;;
40170;SDS011;37650;52.790;18.268;2023-03-24T16:51:48;3.70;;;2.20;;
40170;SDS011;37650;52.790;18.268;2023-03-24T16:55:10;3.80;;;2.20;;
40170;SDS011;37650;52.790;18.268;2023-03-24T16:58:31;7.10;;;3.00;;
40170;SDS011;37650;52.790;18.268;2023-03-24T17:01:53;10.80;;;6.90;;
40170;SDS011;37650;52.790;18.268;2023-03-24T17:08:44;13.20;;;8.90;;
40170;SDS011;37650;52.790;18.268;2023-03-24T17:12:07;6.20;;;3.90;;
40170;SDS011;37650;52.790;18.268;2023-03-24T17:15:30;4.80;;;2.10;;
40170;SDS011;37650;52.790;18.268;2023-03-24T17:18:54;3.10;;;1.70;;
40170;SDS011;37650;52.790;18.268;2023-03-24T17:22:17;3.70;;;1.60;;
40170;SDS011;37650;52.790;18.268;2023-03-24T17:25:39;3.10;;;1.70;;
40170;SDS011;37650;52.790;18.268;2023-03-24T17:29:02;4.10;;;2.30;;
40170;SDS011;37650;52.790;18.268;2023-03-24T17:32:27;4.30;;;2.00;;
40170;SDS011;37650;52.790;18.268;2023-03-24T17:35:50;3.90;;;2.20;;
40170;SDS011;37650;52.790;18.268;2023-03-24T17:39:15;3.90;;;2.40;;
40170;SDS011;37650;52.790;18.268;2023-03-24T17:42:39;8.50;;;5.00;;
40170;SDS011;37650;52.790;18.268;2023-03-24T17:46:02;6.70;;;3.70;;
40170;SDS011;37650;52.790;18.268;2023-03-24T17:49:23;20.10;;;12.40;;
40170;SDS011;37650;52.790;18.268;2023-03-24T17:52:47;19.00;;;12.80;;
40170;SDS011;37650;52.790;18.268;2023-03-24T17:56:09;16.90;;;9.30;;
40170;SDS011;37650;52.790;18.268;2023-03-24T17:59:32;17.80;;;10.30;;
40170;SDS011;37650;52.790;18.268;2023-03-24T18:02:54;12.10;;;8.20;;
40170;SDS011;37650;52.790;18.268;2023-03-24T18:06:16;13.00;;;7.80;;
40170;SDS011;37650;52.790;18.268;2023-03-24T18:09:37;9.70;;;6.30;;
40170;SDS011;37650;52.790;18.268;2023-03-24T18:13:01;11.50;;;6.40;;
40170;SDS011;37650;52.790;18.268;2023-03-24T18:16:24;11.20;;;5.60;;
40170;SDS011;37650;52.790;18.268;2023-03-24T18:19:49;10.80;;;4.60;;
40170;SDS011;37650;52.790;18.268;2023-03-24T18:23:12;11.30;;;4.60;;
40170;SDS011;37650;52.790;18.268;2023-03-24T18:26:36;9.50;;;5.20;;
40170;SDS011;37650;52.790;18.268;2023-03-24T18:29:58;9.60;;;4.60;;
40170;SDS011;37650;52.790;18.268;2023-03-24T18:33:20;6.00;;;3.80;;
40170;SDS011;37650;52.790;18.268;2023-03-24T18:36:44;8.90;;;4.40;;
40170;SDS011;37650;52.790;18.268;2023-03-24T18:40:06;7.40;;;4.30;;
40170;SDS011;37650;52.790;18.268;2023-03-24T18:43:31;7.40;;;4.00;;
40170;SDS011;37650;52.790;18.268;2023-03-24T18:47:03;8.30;;;4.20;;
40170;SDS011;37650;52.790;18.268;2023-03-24T18:50:25;6.60;;;3.80;;
40170;SDS011;37650;52.790;18.268;2023-03-24T18:53:51;6.10;;;3.80;;
40170;SDS011;37650;52.790;18.268;2023-03-24T18:57:14;7.20;;;4.80;;
40170;SDS011;37650;52.790;18.268;2023-03-24T19:00:37;9.90;;;5.90;;
40170;SDS011;37650;52.790;18.268;2023-03-24T19:04:00;6.00;;;3.90;;
40170;SDS011;37650;52.790;18.268;2023-03-24T19:07:23;6.50;;;4.40;;
40170;SDS011;37650;52.790;18.268;2023-03-24T19:10:46;8.40;;;4.90;;
40170;SDS011;37650;52.790;18.268;2023-03-24T19:14:12;7.40;;;3.80;;
40170;SDS011;37650;52.790;18.268;2023-03-24T19:17:34;6.50;;;4.10;;
40170;SDS011;37650;52.790;18.268;2023-03-24T19:21:01;6.30;;;3.20;;
40170;SDS011;37650;52.790;18.268;2023-03-24T19:24:24;7.20;;;4.10;;
40170;SDS011;37650;52.790;18.268;2023-03-24T19:27:47;14.40;;;9.20;;
40170;SDS011;37650;52.790;18.268;2023-03-24T19:31:12;18.40;;;11.90;;
40170;SDS011;37650;52.790;18.268;2023-03-24T19:34:39;15.90;;;11.30;;
40170;SDS011;37650;52.790;18.268;2023-03-24T19:38:02;12.60;;;7.10;;
40170;SDS011;37650;52.790;18.268;2023-03-24T19:41:26;7.30;;;3.70;;
40170;SDS011;37650;52.790;18.268;2023-03-24T19:44:50;6.00;;;3.20;;
40170;SDS011;37650;52.790;18.268;2023-03-24T19:48:14;5.80;;;3.20;;
40170;SDS011;37650;52.790;18.268;2023-03-24T19:51:37;10.80;;;6.20;;
40170;SDS011;37650;52.790;18.268;2023-03-24T19:55:00;15.20;;;7.60;;
40170;SDS011;37650;52.790;18.268;2023-03-24T19:58:24;13.50;;;6.90;;
40170;SDS011;37650;52.790;18.268;2023-03-24T20:01:50;10.30;;;7.00;;
40170;SDS011;37650;52.790;18.268;2023-03-24T20:05:13;11.70;;;6.60;;
40170;SDS011;37650;52.790;18.268;2023-03-24T20:08:35;10.00;;;5.90;;
40170;SDS011;37650;52.790;18.268;2023-03-24T20:12:01;10.40;;;6.60;;
40170;SDS011;37650;52.790;18.268;2023-03-24T20:15:25;10.10;;;6.70;;
40170;SDS011;37650;52.790;18.268;2023-03-24T20:18:50;9.80;;;5.90;;
40170;SDS011;37650;52.790;18.268;2023-03-24T20:22:14;8.60;;;4.70;;
40170;SDS011;37650;52.790;18.268;2023-03-24T20:25:41;8.20;;;4.40;;
40170;SDS011;37650;52.790;18.268;2023-03-24T20:29:07;8.90;;;4.50;;
40170;SDS011;37650;52.790;18.268;2023-03-24T20:32:29;9.40;;;5.30;;
40170;SDS011;37650;52.790;18.268;2023-03-24T20:35:53;7.60;;;4.70;;
40170;SDS011;37650;52.790;18.268;2023-03-24T20:39:19;8.00;;;4.60;;
40170;SDS011;37650;52.790;18.268;2023-03-24T20:42:44;7.40;;;4.10;;
40170;SDS011;37650;52.790;18.268;2023-03-24T20:46:09;9.50;;;3.60;;
40170;SDS011;37650;52.790;18.268;2023-03-24T20:49:34;5.90;;;3.60;;
40170;SDS011;37650;52.790;18.268;2023-03-24T20:52:59;6.80;;;3.30;;
40170;SDS011;37650;52.790;18.268;2023-03-24T20:56:25;5.80;;;3.60;;
40170;SDS011;37650;52.790;18.268;2023-03-24T20:59:49;6.80;;;4.30;;
40170;SDS011;37650;52.790;18.268;2023-03-24T21:03:13;7.70;;;5.10;;
40170;SDS011;37650;52.790;18.268;2023-03-24T21:06:38;8.00;;;4.40;;
40170;SDS011;37650;52.790;18.268;2023-03-24T21:10:03;7.20;;;4.10;;
40170;SDS011;37650;52.790;18.268;2023-03-24T21:13:31;8.90;;;5.60;;
40170;SDS011;37650;52.790;18.268;2023-03-24T21:16:54;10.50;;;5.50;;
40170;SDS011;37650;52.790;18.268;2023-03-24T21:23:40;10.10;;;5.90;;
40170;SDS011;37650;52.790;18.268;2023-03-24T21:27:04;9.30;;;6.10;;
40170;SDS011;37650;52.790;18.268;2023-03-24T21:30:27;9.20;;;5.40;;
40170;SDS011;37650;52.790;18.268;2023-03-24T21:33:51;9.70;;;6.40;;
40170;SDS011;37650;52.790;18.268;2023-03-24T21:37:15;12.30;;;6.80;;
40170;SDS011;37650;52.790;18.268;2023-03-24T21:40:37;9.60;;;6.50;;
40170;SDS011;37650;52.790;18.268;2023-03-24T21:43:59;8.80;;;6.40;;
40170;SDS011;37650;52.790;18.268;2023-03-24T21:47:22;11.80;;;6.40;;
40170;SDS011;37650;52.790;18.268;2023-03-24T21:50:44;9.00;;;6.60;;
40170;SDS011;37650;52.790;18.268;2023-03-24T21:54:06;9.00;;;6.40;;
40170;SDS011;37650;52.790;18.268;2023-03-24T21:57:29;9.60;;;5.90;;
40170;SDS011;37650;52.790;18.268;2023-03-24T22:00:51;9.40;;;6.70;;
40170;SDS011;37650;52.790;18.268;2023-03-24T22:04:15;11.80;;;6.60;;
40170;SDS011;37650;52.790;18.268;2023-03-24T22:10:59;11.30;;;6.60;;
40170;SDS011;37650;52.790;18.268;2023-03-24T22:14:25;10.80;;;6.50;;
40170;SDS011;37650;52.790;18.268;2023-03-24T22:17:47;9.80;;;6.20;;
40170;SDS011;37650;52.790;18.268;2023-03-24T22:24:31;9.70;;;5.70;;
40170;SDS011;37650;52.790;18.268;2023-03-24T22:27:54;11.80;;;6.40;;
40170;SDS011;37650;52.790;18.268;2023-03-24T22:31:16;10.80;;;7.20;;